| Date | Time | Temp. (oF) | Dew Point (oF) | Rel. Hum. (%) | Press. (in.) | Wind Dir. | Wind Speed (mph) | Hourly Rainfall (in.) |
|
|---|---|---|---|---|---|---|---|---|---|
| 1 | 12/27 | 00:00 | 21 | 6 | 53 | 30.46 | NNW | 6 | 0.00 |
| 2 | 12/26 | 23:00 | 22 | 8 | 56 | 30.46 | NNW | 3 | 0.00 |
| 3 | 12/26 | 22:00 | 22 | 7 | 54 | 30.44 | WNW | 2 | 0.00 |
| 4 | 12/26 | 21:00 | 23 | 8 | 54 | 30.44 | W | 3 | 0.00 |
| 5 | 12/26 | 20:00 | 24 | 8 | 52 | 30.43 | S | 4 | 0.00 |
| 6 | 12/26 | 19:00 | 25 | 8 | 48 | 30.41 | W | 3 | 0.00 |
| 7 | 12/26 | 18:00 | 25 | 8 | 48 | 30.40 | SSW | 1 | 0.00 |
| 8 | 12/26 | 17:00 | 27 | 7 | 43 | 30.38 | SW | 2 | 0.00 |
| 9 | 12/26 | 16:00 | 29 | 5 | 36 | 30.36 | SE | 1 | 0.00 |
| 10 | 12/26 | 15:00 | 30 | 4 | 34 | 30.35 | WSW | 9 | 0.00 |
| 11 | 12/26 | 14:00 | 30 | 4 | 33 | 30.36 | SSW | 7 | 0.00 |
| 12 | 12/26 | 13:00 | 29 | 2 | 32 | 30.39 | W | 6 | 0.00 |
| 13 | 12/26 | 12:00 | 28 | 1 | 32 | 30.41 | SSW | 11 | 0.00 |
| 14 | 12/26 | 11:00 | 26 | 3 | 38 | 30.45 | SSW | 7 | 0.00 |
| 15 | 12/26 | 10:00 | 22 | 4 | 47 | 30.45 | W | 4 | 0.00 |
| 16 | 12/26 | 09:00 | 21 | 5 | 51 | 30.44 | S | 3 | 0.00 |
| 17 | 12/26 | 08:00 | 20 | 3 | 49 | 30.42 | WSW | 5 | 0.00 |
| 18 | 12/26 | 07:00 | 20 | 2 | 45 | 30.42 | SSW | 3 | 0.00 |
| 19 | 12/26 | 06:00 | 21 | 3 | 46 | 30.39 | W | 4 | 0.00 |
| 20 | 12/26 | 05:00 | 21 | 2 | 45 | 30.35 | WSW | 3 | 0.00 |
| 21 | 12/26 | 04:00 | 22 | 2 | 43 | 30.33 | S | 4 | 0.00 |
| 22 | 12/26 | 03:00 | 22 | 2 | 43 | 30.33 | WSW | 2 | 0.00 |
| 23 | 12/26 | 02:00 | 22 | 4 | 46 | 30.32 | W | 8 | 0.00 |
| 24 | 12/26 | 01:00 | 23 | 3 | 43 | 30.31 | S | 9 | 0.00 |